createdAt,value
2022-11-26T00:01:42.321Z,50.90
2022-11-26T00:04:09.671Z,51.00
2022-11-26T00:06:42.120Z,51.30
2022-11-26T00:09:18.571Z,51.30
2022-11-26T00:11:45.234Z,51.70
2022-11-26T00:14:16.349Z,51.40
2022-11-26T00:16:44.528Z,51.90
2022-11-26T00:19:12.488Z,51.80
2022-11-26T00:21:40.603Z,50.30
2022-11-26T00:24:33.524Z,50.20
2022-11-26T00:27:00.118Z,53.60
2022-11-26T00:29:26.975Z,53.10
2022-11-26T00:31:53.664Z,53.50
2022-11-26T00:34:20.461Z,50.20
2022-11-26T00:36:47.805Z,56.40
2022-11-26T00:39:25.521Z,56.70
2022-11-26T00:41:52.669Z,54.90
2022-11-26T00:44:24.793Z,57.10
2022-11-26T00:46:53.895Z,53.80
2022-11-26T00:49:20.367Z,53.20
2022-11-26T00:51:47.658Z,54.60
2022-11-26T00:54:16.977Z,58.10
2022-11-26T00:56:45.963Z,57.80
2022-11-26T00:59:15.621Z,56.70
2022-11-26T01:01:42.110Z,54.60
2022-11-26T01:04:08.844Z,54.30
2022-11-26T01:06:38.986Z,52.80
2022-11-26T01:09:08.008Z,54.40
2022-11-26T01:11:36.585Z,54.60
2022-11-26T01:14:06.609Z,53.50
2022-11-26T01:16:38.884Z,52.00
2022-11-26T01:19:11.866Z,54.00
2022-11-26T01:21:42.614Z,52.60
2022-11-26T01:24:10.256Z,52.60
2022-11-26T01:26:43.902Z,52.90
2022-11-26T01:29:18.814Z,51.70
2022-11-26T01:31:46.498Z,53.00
2022-11-26T01:34:13.196Z,54.30
2022-11-26T01:36:42.233Z,48.40
2022-11-26T01:39:23.176Z,50.30
2022-11-26T01:42:15.175Z,49.70
2022-11-26T01:44:44.080Z,50.60
2022-11-26T01:47:27.093Z,49.70
2022-11-26T01:50:37.634Z,45.50
2022-11-26T01:53:15.519Z,48.70
2022-11-26T01:55:52.685Z,47.00
2022-11-26T01:58:40.038Z,48.60
2022-11-26T02:01:07.524Z,46.30
2022-11-26T02:03:42.502Z,48.20
2022-11-26T02:06:17.706Z,45.30
2022-11-26T02:08:44.951Z,43.70
2022-11-26T02:11:20.411Z,43.90
2022-11-26T02:13:51.738Z,43.20
2022-11-26T02:16:58.349Z,42.10
2022-11-26T02:19:53.750Z,42.60
2022-11-26T02:22:51.396Z,42.10
2022-11-26T02:25:23.740Z,43.00
2022-11-26T02:28:17.440Z,42.60
2022-11-26T02:30:48.462Z,40.80
2022-11-26T02:33:25.966Z,39.50
2022-11-26T02:36:12.951Z,42.10
2022-11-26T02:38:42.299Z,41.00
2022-11-26T02:41:09.006Z,42.00
2022-11-26T02:43:35.942Z,41.60
2022-11-26T02:46:14.973Z,42.40
2022-11-26T02:48:49.742Z,41.50
2022-11-26T02:51:22.210Z,39.30
2022-11-26T02:56:26.143Z,39.70
2022-11-26T02:58:55.683Z,42.00
2022-11-26T03:01:36.218Z,41.50
2022-11-26T03:04:09.377Z,41.70
2022-11-26T03:06:36.325Z,39.70
2022-11-26T03:09:03.844Z,41.30
2022-11-26T03:11:30.316Z,39.10
2022-11-26T03:13:56.811Z,40.20
2022-11-26T03:16:23.415Z,44.20
2022-11-26T03:18:52.381Z,40.10
2022-11-26T03:21:18.902Z,42.70
2022-11-26T03:23:45.770Z,42.60
2022-11-26T03:26:13.767Z,42.80
2022-11-26T03:28:40.287Z,42.10
2022-11-26T03:31:07.386Z,40.90
2022-11-26T03:33:39.775Z,41.20
2022-11-26T03:36:06.743Z,43.70
2022-11-26T03:38:33.168Z,44.00
2022-11-26T03:41:03.300Z,45.50
2022-11-26T03:43:30.054Z,42.40
2022-11-26T03:45:59.381Z,45.10
2022-11-26T03:48:26.015Z,53.10
2022-11-26T03:50:54.265Z,47.50
2022-11-26T03:53:25.147Z,43.30
2022-11-26T03:55:51.549Z,43.20
2022-11-26T03:58:17.982Z,41.30
2022-11-26T04:00:44.471Z,45.10
2022-11-26T04:03:10.840Z,44.50
2022-11-26T04:05:37.335Z,40.90
2022-11-26T04:08:03.880Z,45.70
2022-11-26T04:10:30.511Z,41.90
2022-11-26T04:12:56.916Z,45.50
2022-11-26T04:15:23.251Z,46.00
2022-11-26T04:17:49.707Z,51.00
2022-11-26T04:20:16.207Z,47.80
2022-11-26T04:22:42.567Z,45.90
2022-11-26T04:25:09.231Z,48.10
2022-11-26T04:27:35.867Z,48.00
2022-11-26T04:30:05.169Z,48.60
2022-11-26T04:32:31.597Z,48.30
2022-11-26T04:34:57.981Z,45.70
2022-11-26T04:37:24.554Z,51.10
2022-11-26T04:39:51.086Z,49.20
2022-11-26T04:42:17.515Z,44.80
2022-11-26T04:44:43.903Z,44.70
2022-11-26T04:47:10.311Z,42.30
2022-11-26T04:49:36.753Z,40.50
2022-11-26T04:52:03.295Z,43.80
2022-11-26T04:54:29.698Z,40.50
2022-11-26T04:56:56.244Z,41.80
2022-11-26T04:59:22.691Z,40.50
2022-11-26T05:01:49.230Z,42.20
2022-11-26T05:04:15.652Z,43.60
2022-11-26T05:06:42.465Z,41.50
2022-11-26T05:09:08.955Z,43.60
2022-11-26T05:11:35.349Z,40.50
2022-11-26T05:14:01.789Z,39.90
2022-11-26T05:16:28.296Z,41.30
2022-11-26T05:18:54.753Z,41.40
2022-11-26T05:21:21.187Z,38.30
2022-11-26T05:23:47.644Z,36.30
2022-11-26T05:26:13.993Z,37.60
2022-11-26T05:28:40.522Z,36.70
2022-11-26T05:31:07.219Z,36.30
2022-11-26T05:33:33.704Z,36.30
2022-11-26T05:36:00.295Z,34.10
2022-11-26T05:38:26.824Z,32.90
2022-11-26T05:40:53.277Z,34.30
2022-11-26T05:43:19.964Z,33.60
2022-11-26T05:45:46.725Z,32.70
2022-11-26T05:48:13.331Z,33.10
2022-11-26T05:50:39.869Z,32.40
2022-11-26T05:53:06.525Z,29.40
2022-11-26T05:55:33.221Z,30.90
2022-11-26T05:57:59.798Z,32.40
2022-11-26T06:00:26.381Z,32.50
2022-11-26T06:02:53.054Z,32.40
2022-11-26T06:05:20.000Z,32.80
2022-11-26T06:07:46.675Z,31.70
2022-11-26T06:10:13.794Z,30.60
2022-11-26T06:12:40.463Z,30.50
2022-11-26T06:15:07.724Z,30.80
2022-11-26T06:17:34.205Z,31.20
2022-11-26T06:20:00.881Z,29.70
2022-11-26T06:22:27.272Z,29.80
2022-11-26T06:24:53.789Z,29.10
2022-11-26T06:27:20.305Z,30.00
2022-11-26T06:29:46.922Z,31.30
2022-11-26T06:32:13.541Z,33.40
2022-11-26T06:34:43.533Z,32.40
2022-11-26T06:37:10.457Z,30.10
2022-11-26T06:39:36.978Z,29.70
2022-11-26T06:42:03.481Z,29.00
2022-11-26T06:44:29.839Z,30.80
2022-11-26T06:46:59.383Z,31.20
2022-11-26T06:49:25.887Z,29.70
2022-11-26T06:51:53.719Z,27.80
2022-11-26T06:54:20.589Z,31.70
2022-11-26T06:56:47.132Z,30.70
2022-11-26T06:59:14.003Z,30.90
2022-11-26T07:01:40.897Z,28.40
2022-11-26T07:04:07.372Z,29.60
2022-11-26T07:06:33.928Z,26.90
2022-11-26T07:09:05.805Z,30.80
2022-11-26T07:11:36.617Z,31.10
2022-11-26T07:14:03.465Z,28.20
2022-11-26T07:16:30.124Z,30.00
2022-11-26T07:19:02.396Z,33.00
2022-11-26T07:21:30.013Z,29.40
2022-11-26T07:23:59.411Z,28.90
2022-11-26T07:26:26.418Z,27.70
2022-11-26T07:28:53.256Z,28.70
2022-11-26T07:31:22.461Z,29.30
2022-11-26T07:33:50.110Z,28.90
2022-11-26T07:36:23.330Z,35.90
2022-11-26T07:38:50.040Z,45.10
2022-11-26T07:41:19.514Z,35.80
2022-11-26T07:43:46.609Z,31.90
2022-11-26T07:46:17.468Z,29.70
2022-11-26T07:48:44.503Z,29.40
2022-11-26T07:51:29.207Z,27.80
2022-11-26T07:53:58.453Z,29.30
2022-11-26T07:56:26.524Z,31.10
2022-11-26T07:58:53.400Z,31.00
2022-11-26T08:01:29.890Z,36.60
2022-11-26T08:04:02.904Z,41.00
2022-11-26T08:06:30.043Z,47.90
2022-11-26T08:09:01.774Z,53.80
2022-11-26T08:11:31.358Z,61.00
2022-11-26T08:14:07.522Z,38.10
2022-11-26T08:16:34.463Z,33.00
2022-11-26T08:19:10.254Z,30.20
2022-11-26T08:21:39.003Z,32.60
2022-11-26T08:24:07.766Z,31.50
2022-11-26T08:26:38.571Z,33.60
2022-11-26T08:29:11.186Z,36.50
2022-11-26T08:31:44.870Z,31.80
2022-11-26T08:34:14.982Z,35.20
2022-11-26T08:36:41.858Z,35.00
2022-11-26T08:39:12.464Z,37.80
2022-11-26T08:41:39.417Z,39.10
2022-11-26T08:44:07.383Z,39.40
2022-11-26T08:46:40.312Z,38.30
2022-11-26T08:49:10.463Z,37.60
2022-11-26T08:51:37.462Z,40.30
2022-11-26T08:54:04.005Z,33.60
2022-11-26T08:56:30.679Z,32.80
2022-11-26T08:58:57.527Z,35.50
2022-11-26T09:01:30.311Z,37.10
2022-11-26T09:03:59.355Z,39.20
2022-11-26T09:06:29.481Z,36.60
2022-11-26T09:09:15.471Z,33.40
2022-11-26T09:11:53.549Z,37.40
2022-11-26T09:14:24.316Z,38.30
2022-11-26T09:16:52.472Z,36.40
2022-11-26T09:19:19.265Z,36.10
2022-11-26T09:21:46.418Z,34.50
2022-11-26T09:24:13.577Z,34.20
2022-11-26T09:26:40.317Z,34.80
2022-11-26T09:29:06.901Z,33.20
2022-11-26T09:31:33.558Z,31.30
2022-11-26T09:34:01.000Z,32.60
2022-11-26T09:36:27.786Z,32.00
2022-11-26T09:38:58.847Z,33.30
2022-11-26T09:41:55.737Z,32.10
2022-11-26T09:44:37.395Z,34.20
2022-11-26T09:47:12.836Z,34.20
2022-11-26T09:49:54.875Z,35.20
2022-11-26T09:52:45.355Z,34.00
2022-11-26T09:55:40.901Z,35.00
2022-11-26T09:58:40.272Z,34.00
2022-11-26T10:01:18.887Z,34.90
2022-11-26T10:03:45.637Z,36.80
2022-11-26T10:06:30.509Z,38.70
2022-11-26T10:09:11.386Z,36.80
2022-11-26T10:11:53.390Z,36.50
2022-11-26T10:14:44.002Z,30.00
2022-11-26T10:17:24.022Z,31.90
2022-11-26T10:20:27.823Z,31.60
2022-11-26T10:23:06.339Z,32.20
2022-11-26T10:25:44.699Z,31.40
2022-11-26T10:28:26.751Z,31.80
2022-11-26T10:31:05.408Z,32.70
2022-11-26T10:33:39.468Z,30.50
2022-11-26T10:36:09.468Z,29.70
2022-11-26T10:38:38.136Z,26.70
2022-11-26T10:41:05.133Z,27.00
2022-11-26T10:43:31.653Z,26.90
2022-11-26T10:45:58.537Z,29.00
2022-11-26T10:48:35.373Z,29.40
2022-11-26T10:51:29.768Z,25.40
2022-11-26T10:54:02.244Z,26.00
2022-11-26T11:01:57.536Z,26.70
2022-11-26T11:04:39.529Z,24.90
2022-11-26T11:07:38.337Z,25.40
2022-11-26T11:10:09.457Z,23.30
2022-11-26T11:12:50.336Z,23.40
2022-11-26T11:15:32.752Z,25.10
2022-11-26T11:18:32.092Z,26.00
2022-11-26T11:21:29.949Z,27.00
2022-11-26T11:24:09.354Z,23.70
2022-11-26T11:26:48.141Z,24.00
2022-11-26T11:29:31.991Z,25.40
2022-11-26T11:32:11.746Z,23.90
2022-11-26T11:34:45.394Z,23.90
2022-11-26T11:37:23.645Z,23.80
2022-11-26T11:40:14.311Z,23.30
2022-11-26T11:42:56.867Z,27.00
2022-11-26T11:45:42.104Z,26.30
2022-11-26T11:48:53.583Z,27.60
2022-11-26T11:52:03.950Z,28.20
2022-11-26T11:54:57.280Z,36.10
2022-11-26T11:57:45.784Z,36.50
2022-11-26T12:00:25.133Z,34.40
2022-11-26T12:03:45.966Z,37.60
2022-11-26T12:06:55.625Z,32.40
2022-11-26T12:10:02.422Z,33.50
2022-11-26T12:12:46.642Z,31.90
2022-11-26T12:15:25.824Z,29.50
2022-11-26T12:18:18.994Z,29.30
2022-11-26T12:24:07.863Z,28.70
2022-11-26T12:26:41.863Z,29.30
2022-11-26T12:29:41.525Z,27.70
2022-11-26T12:32:34.637Z,29.00
2022-11-26T12:35:11.303Z,27.60
2022-11-26T12:37:42.866Z,28.70
2022-11-26T12:40:26.594Z,26.70
2022-11-26T12:43:25.861Z,26.90
2022-11-26T12:46:05.629Z,31.30
2022-11-26T12:49:04.171Z,26.70
2022-11-26T12:52:13.752Z,26.20
2022-11-26T12:55:01.585Z,26.20
2022-11-26T12:57:40.486Z,27.80
2022-11-26T13:00:54.938Z,28.40
2022-11-26T13:03:33.759Z,27.90
2022-11-26T13:06:20.506Z,31.20
2022-11-26T13:09:03.768Z,29.20
2022-11-26T13:12:32.108Z,27.60
2022-11-26T13:15:38.085Z,26.40
2022-11-26T13:18:17.147Z,26.70
2022-11-26T13:21:22.361Z,28.40
2022-11-26T13:24:08.018Z,26.10
2022-11-26T13:26:44.215Z,25.70
2022-11-26T13:29:49.896Z,24.80
2022-11-26T13:33:08.417Z,26.70
2022-11-26T13:36:37.812Z,26.00
2022-11-26T13:39:30.882Z,28.70
2022-11-26T13:42:49.949Z,30.80
2022-11-26T13:45:46.105Z,27.00
2022-11-26T13:48:45.585Z,26.50
2022-11-26T13:51:25.871Z,28.50
2022-11-26T13:53:53.665Z,26.60
2022-11-26T13:56:26.800Z,26.00
2022-11-26T13:59:00.783Z,27.60
2022-11-26T14:01:37.356Z,28.90
2022-11-26T14:04:36.286Z,36.80
2022-11-26T14:07:04.132Z,32.30
2022-11-26T14:09:47.388Z,33.50
2022-11-26T14:12:20.505Z,29.90
2022-11-26T14:14:51.724Z,29.60
2022-11-26T14:17:24.258Z,37.70
2022-11-26T14:19:54.114Z,39.90
2022-11-26T14:22:22.275Z,54.20
2022-11-26T14:24:50.567Z,43.10
2022-11-26T14:27:21.068Z,29.30
2022-11-26T14:30:09.372Z,30.10
2022-11-26T14:33:11.568Z,28.00
2022-11-26T14:35:40.450Z,26.20
2022-11-26T14:38:28.808Z,26.70
2022-11-26T14:40:59.563Z,27.10
2022-11-26T14:50:25.356Z,26.80
2022-11-26T14:53:01.888Z,27.70
2022-11-26T14:55:32.066Z,26.00
2022-11-26T14:58:15.088Z,27.10
2022-11-26T15:00:43.601Z,31.80
2022-11-26T15:03:28.831Z,32.10
2022-11-26T15:05:57.266Z,32.80
2022-11-26T15:08:27.297Z,30.60
2022-11-26T15:11:03.355Z,29.00
2022-11-26T15:13:39.874Z,28.20
2022-11-26T15:16:47.872Z,28.30
2022-11-26T15:19:20.041Z,27.70
2022-11-26T15:21:48.876Z,27.70
2022-11-26T15:24:18.553Z,30.80
2022-11-26T15:26:50.153Z,35.30
2022-11-26T15:29:41.404Z,37.90
2022-11-26T15:32:32.502Z,37.60
2022-11-26T15:35:02.988Z,35.30
2022-11-26T15:37:31.198Z,36.30
2022-11-26T15:40:25.586Z,35.50
2022-11-26T15:43:03.393Z,30.00
2022-11-26T15:45:42.263Z,32.20
2022-11-26T15:48:51.902Z,33.50
2022-11-26T15:51:35.500Z,32.50
2022-11-26T15:54:38.344Z,35.50
2022-11-26T15:57:33.718Z,37.80
2022-11-26T16:00:08.599Z,35.20
2022-11-26T16:02:39.144Z,34.00
2022-11-26T16:05:41.873Z,35.90
2022-11-26T16:08:31.222Z,37.70
2022-11-26T16:11:10.744Z,42.60
2022-11-26T16:13:39.052Z,41.90
2022-11-26T16:16:21.580Z,57.40
2022-11-26T16:19:04.870Z,90.70
2022-11-26T16:21:34.925Z,83.70
2022-11-26T16:24:25.732Z,70.60
2022-11-26T16:26:59.614Z,41.60
2022-11-26T16:29:30.772Z,48.80
2022-11-26T16:31:59.298Z,52.10
2022-11-26T16:34:28.280Z,51.50
2022-11-26T16:37:24.045Z,43.20
2022-11-26T16:40:00.327Z,44.70
2022-11-26T16:42:31.854Z,45.70
2022-11-26T16:45:04.200Z,51.80
2022-11-26T16:47:42.365Z,48.40
2022-11-26T16:50:25.285Z,47.90
2022-11-26T16:52:55.166Z,46.20
2022-11-26T16:55:26.988Z,42.80
2022-11-26T16:58:00.403Z,48.50
2022-11-26T17:00:41.486Z,44.90
2022-11-26T17:03:14.308Z,44.90
2022-11-26T17:05:45.356Z,48.30
2022-11-26T17:08:16.056Z,46.50
2022-11-26T17:10:52.428Z,46.30
2022-11-26T17:13:21.037Z,51.70
2022-11-26T17:15:51.021Z,50.70
2022-11-26T17:18:24.755Z,46.90
2022-11-26T17:20:54.333Z,51.40
2022-11-26T17:23:22.221Z,44.90
2022-11-26T17:25:53.960Z,47.30
2022-11-26T17:28:23.339Z,47.00
2022-11-26T17:30:51.499Z,51.00
2022-11-26T17:33:19.598Z,49.70
2022-11-26T17:35:50.954Z,48.20
2022-11-26T17:38:21.162Z,58.20
2022-11-26T17:40:49.182Z,59.40
2022-11-26T17:43:17.324Z,59.70
2022-11-26T17:45:45.928Z,48.70
2022-11-26T17:48:14.295Z,45.00
2022-11-26T17:50:43.102Z,36.90
2022-11-26T17:53:12.095Z,44.20
2022-11-26T17:55:40.202Z,35.80
2022-11-26T17:58:11.551Z,37.50
2022-11-26T18:00:40.791Z,40.80
2022-11-26T18:03:09.224Z,41.20
2022-11-26T18:05:44.896Z,40.40
2022-11-26T18:08:13.479Z,52.60
2022-11-26T18:10:42.007Z,46.00
2022-11-26T18:13:10.283Z,53.30
2022-11-26T18:15:38.743Z,57.90
2022-11-26T18:18:08.092Z,33.90
2022-11-26T18:20:36.884Z,33.40
2022-11-26T18:23:07.234Z,33.20
2022-11-26T18:25:35.415Z,32.30
2022-11-26T18:28:08.042Z,30.90
2022-11-26T18:33:07.923Z,38.80
2022-11-26T18:35:35.883Z,35.80
2022-11-26T18:38:07.963Z,37.50
2022-11-26T18:40:37.023Z,35.60
2022-11-26T18:43:11.035Z,33.60
2022-11-26T18:45:44.767Z,36.60
2022-11-26T18:48:14.971Z,35.80
2022-11-26T18:50:44.652Z,33.80
2022-11-26T18:53:13.892Z,33.30
2022-11-26T18:55:42.941Z,33.10
2022-11-26T18:58:11.177Z,35.70
2022-11-26T19:00:39.247Z,33.30
2022-11-26T19:03:07.081Z,34.20
2022-11-26T19:05:37.597Z,32.60
2022-11-26T19:08:06.670Z,33.60
2022-11-26T19:10:37.039Z,35.90
2022-11-26T19:13:05.376Z,36.30
2022-11-26T19:15:33.352Z,37.90
2022-11-26T19:18:01.947Z,38.70
2022-11-26T19:20:29.946Z,40.00
2022-11-26T19:22:57.993Z,38.10
2022-11-26T19:25:26.057Z,83.40
2022-11-26T19:27:58.955Z,51.70
2022-11-26T19:30:30.338Z,49.80
2022-11-26T19:32:58.502Z,45.70
2022-11-26T19:35:26.935Z,39.50
2022-11-26T19:37:54.847Z,38.30
2022-11-26T19:40:23.304Z,39.00
2022-11-26T19:42:51.532Z,39.80
2022-11-26T19:45:19.525Z,40.70
2022-11-26T19:47:47.516Z,39.30
2022-11-26T19:50:16.135Z,36.60
2022-11-26T19:52:47.935Z,38.80
2022-11-26T19:55:16.318Z,38.50
2022-11-26T19:57:44.503Z,39.00
2022-11-26T20:00:13.577Z,37.30
2022-11-26T20:02:41.647Z,38.30
2022-11-26T20:05:09.691Z,39.20
2022-11-26T20:07:37.735Z,36.30
2022-11-26T20:10:06.875Z,37.30
2022-11-26T20:12:34.947Z,36.10
2022-11-26T20:15:02.972Z,37.90
2022-11-26T20:17:30.877Z,35.70
2022-11-26T20:19:58.747Z,35.40
2022-11-26T20:22:28.206Z,32.90
2022-11-26T20:24:56.367Z,33.20
2022-11-26T20:27:24.545Z,34.70
2022-11-26T20:29:52.571Z,34.10
2022-11-26T20:32:20.989Z,33.10
2022-11-26T20:34:49.088Z,32.80
2022-11-26T20:37:17.248Z,32.40
2022-11-26T20:39:45.286Z,33.70
2022-11-26T20:42:17.864Z,35.70
2022-11-26T20:44:46.366Z,34.10
2022-11-26T20:47:15.106Z,33.40
2022-11-26T20:49:43.509Z,31.10
2022-11-26T20:52:11.791Z,35.30
2022-11-26T20:54:40.259Z,34.40
2022-11-26T20:57:08.271Z,33.40
2022-11-26T20:59:38.010Z,33.70
2022-11-26T21:02:06.860Z,32.00
2022-11-26T21:04:35.047Z,33.00
2022-11-26T21:07:04.372Z,33.90
2022-11-26T21:09:32.379Z,34.90
2022-11-26T21:12:00.732Z,35.00
2022-11-26T21:14:29.902Z,33.90
2022-11-26T21:16:58.243Z,34.80
2022-11-26T21:19:26.445Z,34.60
2022-11-26T21:21:54.986Z,36.50
2022-11-26T21:24:23.055Z,37.90
2022-11-26T21:26:51.171Z,33.10
2022-11-26T21:29:19.118Z,35.50
2022-11-26T21:31:47.378Z,37.60
2022-11-26T21:34:15.439Z,36.40
2022-11-26T21:36:43.453Z,33.50
2022-11-26T21:39:15.563Z,34.20
2022-11-26T21:41:43.504Z,34.10
2022-11-26T21:44:11.731Z,35.40
2022-11-26T21:46:40.272Z,33.50
2022-11-26T21:49:08.435Z,35.90
2022-11-26T21:51:37.111Z,34.80
2022-11-26T21:54:15.227Z,34.50
2022-11-26T21:56:51.981Z,34.10
2022-11-26T21:59:28.978Z,31.30
2022-11-26T22:01:56.951Z,33.00
2022-11-26T22:04:24.981Z,33.50
2022-11-26T22:06:53.059Z,33.40
2022-11-26T22:09:21.114Z,31.10
2022-11-26T22:11:49.782Z,32.10
2022-11-26T22:14:17.982Z,31.80
2022-11-26T22:16:48.270Z,31.50
2022-11-26T22:19:16.199Z,34.70
2022-11-26T22:21:50.971Z,34.20
2022-11-26T22:24:20.421Z,34.30
2022-11-26T22:26:48.451Z,32.60
2022-11-26T22:29:19.184Z,36.20
2022-11-26T22:31:48.474Z,35.00
2022-11-26T22:34:22.219Z,34.40
2022-11-26T22:36:51.043Z,32.50
2022-11-26T22:39:20.203Z,33.70
2022-11-26T22:41:48.943Z,32.30
2022-11-26T22:44:17.945Z,33.40
2022-11-26T22:46:46.132Z,33.40
2022-11-26T22:49:18.918Z,32.50
2022-11-26T22:54:16.254Z,31.70
2022-11-26T22:56:44.791Z,33.10
2022-11-26T22:59:14.675Z,32.60
2022-11-26T23:01:42.554Z,32.20
2022-11-26T23:04:11.422Z,33.40
2022-11-26T23:06:41.428Z,34.90
2022-11-26T23:09:11.304Z,31.60
2022-11-26T23:11:42.004Z,34.50
2022-11-26T23:14:12.289Z,32.70
2022-11-26T23:16:42.483Z,36.10
2022-11-26T23:19:15.856Z,37.10
2022-11-26T23:21:46.763Z,36.90
2022-11-26T23:24:15.724Z,35.80
2022-11-26T23:26:44.560Z,37.20
2022-11-26T23:29:12.910Z,38.10
2022-11-26T23:31:44.580Z,39.00
2022-11-26T23:34:14.005Z,36.30
2022-11-26T23:36:42.329Z,38.10
2022-11-26T23:39:12.694Z,34.90
2022-11-26T23:41:40.774Z,37.40
2022-11-26T23:44:08.830Z,35.10
2022-11-26T23:46:36.755Z,35.80
2022-11-26T23:49:05.076Z,35.90
2022-11-26T23:51:33.769Z,36.70
2022-11-26T23:54:01.937Z,33.20
2022-11-26T23:56:32.570Z,36.00
2022-11-26T23:59:04.862Z,37.90
